createdAt,value
2018-03-16T00:01:57.282Z,16.10
2018-03-16T00:04:23.524Z,15.90
2018-03-16T00:06:49.648Z,16.23
2018-03-16T00:09:15.865Z,15.83
2018-03-16T00:11:42.014Z,15.70
2018-03-16T00:14:08.232Z,15.77
2018-03-16T00:16:34.418Z,17.00
2018-03-16T00:19:00.599Z,14.93
2018-03-16T00:21:26.796Z,16.50
2018-03-16T00:23:52.924Z,16.50
2018-03-16T00:26:19.099Z,15.57
2018-03-16T00:28:45.268Z,16.30
2018-03-16T00:31:11.463Z,16.20
2018-03-16T00:33:38.443Z,14.73
2018-03-16T00:36:04.595Z,14.70
2018-03-16T00:38:30.786Z,15.23
2018-03-16T00:40:56.958Z,16.83
2018-03-16T00:43:23.127Z,16.03
2018-03-16T00:45:50.007Z,16.93
2018-03-16T00:48:16.194Z,16.03
2018-03-16T00:50:43.092Z,14.73
2018-03-16T00:53:09.299Z,16.50
2018-03-16T00:55:35.493Z,15.50
2018-03-16T00:58:02.433Z,16.53
2018-03-16T01:00:29.330Z,18.07
2018-03-16T01:02:55.452Z,16.80
2018-03-16T01:05:21.624Z,17.70
2018-03-16T01:07:48.544Z,18.60
2018-03-16T01:10:14.685Z,16.37
2018-03-16T01:12:40.820Z,17.37
2018-03-16T01:15:06.996Z,16.97
2018-03-16T01:17:33.180Z,16.07
2018-03-16T01:20:00.123Z,17.23
2018-03-16T01:22:26.301Z,16.33
2018-03-16T01:24:52.471Z,15.60
2018-03-16T01:27:18.658Z,17.27
2018-03-16T01:29:44.801Z,16.17
2018-03-16T01:32:10.986Z,16.93
2018-03-16T01:34:37.103Z,17.10
2018-03-16T01:37:04.052Z,16.77
2018-03-16T01:39:30.256Z,17.30
2018-03-16T01:41:57.176Z,18.17
2018-03-16T01:44:23.307Z,16.50
2018-03-16T01:46:49.430Z,16.57
2018-03-16T01:49:15.580Z,16.97
2018-03-16T01:51:41.745Z,16.67
2018-03-16T01:54:08.015Z,16.57
2018-03-16T01:56:34.207Z,16.30
2018-03-16T01:59:00.372Z,16.23
2018-03-16T02:01:26.502Z,17.43
2018-03-16T02:03:52.685Z,17.80
2018-03-16T02:06:18.911Z,16.90
2018-03-16T02:08:45.063Z,17.27
2018-03-16T02:11:11.264Z,16.50
2018-03-16T02:13:37.448Z,16.87
2018-03-16T02:16:03.680Z,17.10
2018-03-16T02:18:30.602Z,16.37
2018-03-16T02:20:56.754Z,17.97
2018-03-16T02:23:23.638Z,17.27
2018-03-16T02:25:49.863Z,16.80
2018-03-16T02:28:16.029Z,15.93
2018-03-16T02:30:42.190Z,17.63
2018-03-16T02:33:09.076Z,17.20
2018-03-16T02:35:35.273Z,15.90
2018-03-16T02:38:01.395Z,17.83
2018-03-16T02:40:28.347Z,17.37
2018-03-16T02:42:54.489Z,17.13
2018-03-16T02:45:20.664Z,18.30
2018-03-16T02:47:46.834Z,16.80
2018-03-16T02:50:13.031Z,17.50
2018-03-16T02:52:39.964Z,17.20
2018-03-16T02:55:06.123Z,17.23
2018-03-16T02:57:32.273Z,16.93
2018-03-16T02:59:58.511Z,16.70
2018-03-16T03:02:24.674Z,17.30
2018-03-16T03:04:51.604Z,17.27
2018-03-16T03:07:17.823Z,17.40
2018-03-16T03:09:43.982Z,17.10
2018-03-16T03:12:10.903Z,18.17
2018-03-16T03:14:37.928Z,16.87
2018-03-16T03:17:04.105Z,17.63
2018-03-16T03:19:31.044Z,17.77
2018-03-16T03:21:57.212Z,17.90
2018-03-16T03:24:23.435Z,17.73
2018-03-16T03:26:49.556Z,17.63
2018-03-16T03:29:15.705Z,17.20
2018-03-16T03:31:41.884Z,18.23
2018-03-16T03:34:08.785Z,17.33
2018-03-16T03:36:34.996Z,17.70
2018-03-16T03:39:01.180Z,17.10
2018-03-16T03:41:28.059Z,18.33
2018-03-16T03:43:54.275Z,18.40
2018-03-16T03:46:20.412Z,18.57
2018-03-16T03:48:46.552Z,18.37
2018-03-16T03:51:12.730Z,17.70
2018-03-16T03:53:39.606Z,18.00
2018-03-16T03:56:05.778Z,18.43
2018-03-16T03:58:31.981Z,17.20
2018-03-16T04:00:58.127Z,18.00
2018-03-16T04:03:24.322Z,18.50
2018-03-16T04:05:50.532Z,17.63
2018-03-16T04:08:16.720Z,17.73
2018-03-16T04:10:42.891Z,16.83
2018-03-16T04:13:09.093Z,17.63
2018-03-16T04:15:36.067Z,20.40
2018-03-16T04:18:02.226Z,18.40
2018-03-16T04:20:28.401Z,17.70
2018-03-16T04:22:55.332Z,18.70
2018-03-16T04:25:22.223Z,17.93
2018-03-16T04:27:48.378Z,19.40
2018-03-16T04:30:15.306Z,18.50
2018-03-16T04:32:41.462Z,18.70
2018-03-16T04:35:07.637Z,19.63
2018-03-16T04:37:33.799Z,18.20
2018-03-16T04:39:59.946Z,19.03
2018-03-16T04:42:26.190Z,20.20
2018-03-16T04:44:53.089Z,17.80
2018-03-16T04:47:19.281Z,18.00
2018-03-16T04:49:45.522Z,19.20
2018-03-16T04:52:11.975Z,19.17
2018-03-16T04:54:38.173Z,19.90
2018-03-16T04:57:04.382Z,18.60
2018-03-16T04:59:31.364Z,19.37
2018-03-16T05:01:57.584Z,19.43
2018-03-16T05:04:23.734Z,17.77
2018-03-16T05:06:49.854Z,18.20
2018-03-16T05:09:16.070Z,20.07
2018-03-16T05:11:42.255Z,20.30
2018-03-16T05:14:09.128Z,19.50
2018-03-16T05:16:35.309Z,19.73
2018-03-16T05:19:08.419Z,19.07
2018-03-16T05:21:34.542Z,19.20
2018-03-16T05:24:00.760Z,20.87
2018-03-16T05:26:27.062Z,19.53
2018-03-16T05:28:53.241Z,21.23
2018-03-16T05:31:20.168Z,19.20
2018-03-16T05:33:46.392Z,19.03
2018-03-16T05:36:12.588Z,21.40
2018-03-16T05:38:39.582Z,20.70
2018-03-16T05:41:06.467Z,20.90
2018-03-16T05:43:32.620Z,20.90
2018-03-16T05:45:58.778Z,19.83
2018-03-16T05:48:25.769Z,20.70
2018-03-16T05:50:52.242Z,20.87
2018-03-16T05:53:18.500Z,20.40
2018-03-16T05:55:44.627Z,20.00
2018-03-16T05:58:11.504Z,20.60
2018-03-16T06:00:37.660Z,20.47
2018-03-16T06:03:03.803Z,21.50
2018-03-16T06:05:29.971Z,20.47
2018-03-16T06:07:56.108Z,22.40
2018-03-16T06:10:22.270Z,20.03
2018-03-16T06:12:48.447Z,19.60
2018-03-16T06:15:14.674Z,20.10
2018-03-16T06:17:40.829Z,21.40
2018-03-16T06:20:07.011Z,21.37
2018-03-16T06:22:33.321Z,21.00
2018-03-16T06:25:00.267Z,21.17
2018-03-16T06:27:27.249Z,20.10
2018-03-16T06:29:53.458Z,21.00
2018-03-16T06:32:19.621Z,21.10
2018-03-16T06:34:45.803Z,22.27
2018-03-16T06:37:12.755Z,22.03
2018-03-16T06:39:39.689Z,21.43
2018-03-16T06:42:06.612Z,23.87
2018-03-16T06:44:32.793Z,22.30
2018-03-16T06:46:58.978Z,23.57
2018-03-16T06:49:25.886Z,25.20
2018-03-16T06:51:52.115Z,25.67
2018-03-16T06:54:18.364Z,21.70
2018-03-16T06:56:45.487Z,24.70
2018-03-16T06:59:11.923Z,23.30
2018-03-16T07:01:38.502Z,22.90
2018-03-16T07:04:05.505Z,21.90
2018-03-16T07:06:31.668Z,22.63
2018-03-16T07:08:57.922Z,23.50
2018-03-16T07:11:24.856Z,21.70
2018-03-16T07:13:51.790Z,22.47
2018-03-16T07:16:17.956Z,22.00
2018-03-16T07:18:44.107Z,20.50
2018-03-16T07:21:10.334Z,21.47
2018-03-16T07:23:36.468Z,21.23
2018-03-16T07:26:02.630Z,23.03
2018-03-16T07:28:28.826Z,22.23
2018-03-16T07:30:55.045Z,22.00
2018-03-16T07:33:21.224Z,21.30
2018-03-16T07:35:48.204Z,22.37
2018-03-16T07:38:14.369Z,21.50
2018-03-16T07:40:40.579Z,21.87
2018-03-16T07:43:06.799Z,21.40
2018-03-16T07:45:39.056Z,20.80
2018-03-16T07:48:05.267Z,22.63
2018-03-16T07:50:31.385Z,21.10
2018-03-16T07:52:58.315Z,21.73
2018-03-16T07:55:25.236Z,21.30
2018-03-16T07:57:51.428Z,20.83
2018-03-16T08:00:17.582Z,20.27
2018-03-16T08:02:43.751Z,20.50
2018-03-16T08:05:10.675Z,20.70
2018-03-16T08:07:36.792Z,20.73
2018-03-16T08:10:03.067Z,21.87
2018-03-16T08:12:29.226Z,19.90
2018-03-16T08:14:55.410Z,21.23
2018-03-16T08:17:22.325Z,19.33
2018-03-16T08:19:48.423Z,20.07
2018-03-16T08:22:14.621Z,20.23
2018-03-16T08:24:40.737Z,19.80
2018-03-16T08:27:06.888Z,20.20
2018-03-16T08:29:33.119Z,20.33
2018-03-16T08:31:59.333Z,20.80
2018-03-16T08:34:25.544Z,21.00
2018-03-16T08:36:51.709Z,20.00
2018-03-16T08:39:17.858Z,19.30
2018-03-16T08:41:44.310Z,19.00
2018-03-16T08:44:10.509Z,18.30
2018-03-16T08:46:36.671Z,19.87
2018-03-16T08:49:03.612Z,18.90
2018-03-16T08:51:30.555Z,19.33
2018-03-16T08:53:57.654Z,18.40
2018-03-16T08:56:24.012Z,19.90
2018-03-16T08:58:50.275Z,18.80
2018-03-16T09:01:17.208Z,18.20
2018-03-16T09:03:44.543Z,18.60
2018-03-16T09:06:10.712Z,19.10
2018-03-16T09:08:37.607Z,19.00
2018-03-16T09:11:03.927Z,19.53
2018-03-16T09:13:30.130Z,18.97
2018-03-16T09:15:56.372Z,20.30
2018-03-16T09:18:22.518Z,18.57
2018-03-16T09:20:48.704Z,19.60
2018-03-16T09:23:15.070Z,19.33
2018-03-16T09:25:41.261Z,17.27
2018-03-16T09:28:07.430Z,17.90
2018-03-16T09:30:33.650Z,15.90
2018-03-16T09:32:59.820Z,20.90
2018-03-16T09:35:26.756Z,20.00
2018-03-16T09:37:52.897Z,17.13
2018-03-16T09:40:19.815Z,16.47
2018-03-16T09:42:45.955Z,15.00
2018-03-16T09:45:12.190Z,18.30
2018-03-16T09:47:39.111Z,16.77
2018-03-16T09:50:05.318Z,18.00
2018-03-16T09:52:31.516Z,15.43
2018-03-16T09:55:09.874Z,13.53
2018-03-16T09:57:36.901Z,13.33
2018-03-16T10:02:54.093Z,13.43
2018-03-16T10:05:20.248Z,13.90
2018-03-16T10:07:47.121Z,13.97
2018-03-16T10:10:13.238Z,14.17
2018-03-16T10:12:40.093Z,12.73
2018-03-16T10:15:06.263Z,11.03
2018-03-16T10:17:32.436Z,10.90
2018-03-16T10:19:58.553Z,9.70
2018-03-16T10:22:25.484Z,10.17
2018-03-16T10:24:51.634Z,8.60
2018-03-16T10:27:18.517Z,8.40
2018-03-16T10:29:44.683Z,7.67
2018-03-16T10:32:10.848Z,7.93
2018-03-16T10:34:37.003Z,7.40
2018-03-16T10:37:03.160Z,6.60
2018-03-16T10:39:30.119Z,7.00
2018-03-16T10:41:56.985Z,7.03
2018-03-16T10:44:23.149Z,12.30
2018-03-16T10:46:49.283Z,12.83
2018-03-16T10:49:15.414Z,12.30
2018-03-16T10:51:41.605Z,12.33
2018-03-16T10:54:07.783Z,10.70
2018-03-16T10:56:33.994Z,11.10
2018-03-16T10:59:00.169Z,11.67
2018-03-16T11:04:29.024Z,12.27
2018-03-16T11:07:01.190Z,10.53
2018-03-16T11:09:27.366Z,10.53
2018-03-16T11:11:54.215Z,11.17
2018-03-16T11:14:20.351Z,10.53
2018-03-16T11:16:46.501Z,10.63
2018-03-16T11:19:12.668Z,9.57
2018-03-16T11:21:38.812Z,7.47
2018-03-16T11:24:05.778Z,8.63
2018-03-16T11:26:31.896Z,7.70
2018-03-16T11:28:58.099Z,8.10
2018-03-16T11:31:25.010Z,8.37
2018-03-16T11:33:51.173Z,5.10
2018-03-16T11:36:17.336Z,4.13
2018-03-16T11:38:43.454Z,4.20
2018-03-16T11:41:09.599Z,3.20
2018-03-16T11:43:35.734Z,3.97
2018-03-16T11:46:01.872Z,4.00
2018-03-16T11:48:28.037Z,3.27
2018-03-16T11:50:54.925Z,3.40
2018-03-16T11:53:21.088Z,2.93
2018-03-16T11:55:47.214Z,3.20
2018-03-16T11:58:13.384Z,2.90
2018-03-16T12:00:39.556Z,3.30
2018-03-16T12:03:05.681Z,2.77
2018-03-16T12:05:32.602Z,3.00
2018-03-16T12:07:58.754Z,3.00
2018-03-16T12:10:24.915Z,2.43
2018-03-16T12:12:51.767Z,2.97
2018-03-16T12:15:18.629Z,2.50
2018-03-16T12:17:44.801Z,2.57
2018-03-16T12:20:10.901Z,2.80
2018-03-16T12:22:37.101Z,3.13
2018-03-16T12:25:03.265Z,2.90
2018-03-16T12:27:32.000Z,2.70
2018-03-16T12:29:58.897Z,3.27
2018-03-16T12:32:25.073Z,3.60
2018-03-16T12:34:51.948Z,3.20
2018-03-16T12:37:19.136Z,3.60
2018-03-16T12:39:45.320Z,2.77
2018-03-16T12:42:11.559Z,3.20
2018-03-16T12:44:37.662Z,3.13
2018-03-16T12:47:03.864Z,3.20
2018-03-16T12:49:30.733Z,3.73
2018-03-16T12:51:56.854Z,2.57
2018-03-16T12:54:23.218Z,2.60
2018-03-16T12:56:50.097Z,3.00
2018-03-16T12:59:16.253Z,2.87
2018-03-16T13:01:42.405Z,3.20
2018-03-16T13:04:08.528Z,2.73
2018-03-16T13:06:34.746Z,3.67
2018-03-16T13:09:00.937Z,3.40
2018-03-16T13:11:27.809Z,3.07
2018-03-16T13:13:53.947Z,3.27
2018-03-16T13:16:20.987Z,3.90
2018-03-16T13:18:47.761Z,3.30
2018-03-16T13:21:13.908Z,2.83
2018-03-16T13:23:40.100Z,3.23
2018-03-16T13:26:06.243Z,2.30
2018-03-16T13:28:32.398Z,2.47
2018-03-16T13:30:58.573Z,2.30
2018-03-16T13:33:24.702Z,2.37
2018-03-16T13:35:51.065Z,2.00
2018-03-16T13:38:17.214Z,2.30
2018-03-16T13:40:44.129Z,2.93
2018-03-16T13:43:10.431Z,2.60
2018-03-16T13:45:36.570Z,2.40
2018-03-16T13:48:02.761Z,2.50
2018-03-16T13:50:29.660Z,2.20
2018-03-16T13:52:55.873Z,2.03
2018-03-16T13:55:22.017Z,1.90
2018-03-16T13:57:48.181Z,2.40
2018-03-16T14:00:15.060Z,2.17
2018-03-16T14:02:41.214Z,1.97
2018-03-16T14:05:07.355Z,2.17
2018-03-16T14:07:33.516Z,7.67
2018-03-16T14:09:59.717Z,2.60
2018-03-16T14:12:26.728Z,2.63
2018-03-16T14:14:52.889Z,2.20
2018-03-16T14:17:19.832Z,2.60
2018-03-16T14:19:46.745Z,2.57
2018-03-16T14:22:12.892Z,2.30
2018-03-16T14:24:38.999Z,2.20
2018-03-16T14:27:05.122Z,2.60
2018-03-16T14:29:31.257Z,2.73
2018-03-16T14:31:57.559Z,2.60
2018-03-16T14:34:23.646Z,2.10
2018-03-16T14:36:50.518Z,2.40
2018-03-16T14:39:16.646Z,2.47
2018-03-16T14:41:42.867Z,2.30
2018-03-16T14:44:09.725Z,2.93
2018-03-16T14:46:35.853Z,2.83
2018-03-16T14:49:01.956Z,2.20
2018-03-16T14:51:28.244Z,1.93
2018-03-16T14:53:54.465Z,1.90
2018-03-16T14:56:20.568Z,2.27
2018-03-16T14:58:46.740Z,1.60
2018-03-16T15:01:13.657Z,2.30
2018-03-16T15:03:39.812Z,1.53
2018-03-16T15:06:06.740Z,1.60
2018-03-16T15:08:32.940Z,2.07
2018-03-16T15:10:59.129Z,2.00
2018-03-16T15:13:26.001Z,2.43
2018-03-16T15:15:52.134Z,2.70
2018-03-16T15:18:18.285Z,2.00
2018-03-16T15:20:45.170Z,1.90
2018-03-16T15:23:12.084Z,1.63
2018-03-16T15:25:38.261Z,1.60
2018-03-16T15:28:04.452Z,1.70
2018-03-16T15:30:31.399Z,1.43
2018-03-16T15:32:58.850Z,2.00
2018-03-16T15:35:25.785Z,1.60
2018-03-16T15:37:51.914Z,1.80
2018-03-16T15:40:18.867Z,2.03
2018-03-16T15:42:45.784Z,2.00
2018-03-16T15:45:11.951Z,2.03
2018-03-16T15:47:39.839Z,2.40
2018-03-16T15:50:06.035Z,1.70
2018-03-16T15:52:32.208Z,3.00
2018-03-16T15:54:58.345Z,3.20
2018-03-16T15:57:24.483Z,1.80
2018-03-16T15:59:50.637Z,2.10
2018-03-16T16:02:16.849Z,1.97
2018-03-16T16:04:43.729Z,2.20
2018-03-16T16:07:10.561Z,1.93
2018-03-16T16:09:37.434Z,1.77
2018-03-16T16:12:03.663Z,1.63
2018-03-16T16:14:29.832Z,1.90
2018-03-16T16:16:56.001Z,2.00
2018-03-16T16:19:22.159Z,1.97
2018-03-16T16:21:48.410Z,1.70
2018-03-16T16:24:14.576Z,2.50
2018-03-16T16:26:42.018Z,2.30
2018-03-16T16:29:08.188Z,2.40
2018-03-16T16:31:34.322Z,2.87
2018-03-16T16:34:00.430Z,2.77
2018-03-16T16:36:27.204Z,2.43
2018-03-16T16:38:53.393Z,2.67
2018-03-16T16:41:19.556Z,3.10
2018-03-16T16:43:45.722Z,3.17
2018-03-16T16:46:12.623Z,4.10
2018-03-16T16:48:38.813Z,3.03
2018-03-16T16:51:05.029Z,2.80
2018-03-16T16:53:31.190Z,3.10
2018-03-16T16:55:57.381Z,2.93
2018-03-16T16:58:25.466Z,3.30
2018-03-16T17:00:51.622Z,3.50
2018-03-16T17:03:18.733Z,3.10
2018-03-16T17:05:45.571Z,3.27
2018-03-16T17:08:12.445Z,3.50
2018-03-16T17:10:38.633Z,3.27
2018-03-16T17:13:04.808Z,4.63
2018-03-16T17:15:31.006Z,2.93
2018-03-16T17:17:57.889Z,3.33
2018-03-16T17:20:24.072Z,3.40
2018-03-16T17:22:51.004Z,3.40
2018-03-16T17:25:17.912Z,3.60
2018-03-16T17:27:44.644Z,3.20
2018-03-16T17:30:10.854Z,4.33
2018-03-16T17:32:36.998Z,4.00
2018-03-16T17:35:03.176Z,3.60
2018-03-16T17:37:30.076Z,3.87
2018-03-16T17:39:56.304Z,3.73
2018-03-16T17:42:22.425Z,3.90
2018-03-16T17:44:48.551Z,3.73
2018-03-16T17:47:14.733Z,4.47
2018-03-16T17:49:41.609Z,5.17
2018-03-16T17:52:07.760Z,5.87
2018-03-16T17:54:33.980Z,5.93
2018-03-16T17:57:00.216Z,6.30
2018-03-16T17:59:26.414Z,4.97
2018-03-16T18:01:52.585Z,5.53
2018-03-16T18:04:18.778Z,4.30
2018-03-16T18:06:44.953Z,4.90
2018-03-16T18:09:11.072Z,4.00
2018-03-16T18:11:37.266Z,4.60
2018-03-16T18:14:03.446Z,4.43
2018-03-16T18:16:30.321Z,4.67
2018-03-16T18:18:56.440Z,5.13
2018-03-16T18:21:22.558Z,4.93
2018-03-16T18:23:48.689Z,5.13
2018-03-16T18:26:14.803Z,5.33
2018-03-16T18:28:41.686Z,5.30
2018-03-16T18:31:08.370Z,5.90
2018-03-16T18:33:35.265Z,6.17
2018-03-16T18:36:01.461Z,6.10
2018-03-16T18:38:27.683Z,6.10
2018-03-16T18:40:54.608Z,6.17
2018-03-16T18:43:21.481Z,6.17
2018-03-16T18:45:47.656Z,6.47
2018-03-16T18:48:13.850Z,6.27
2018-03-16T18:50:39.998Z,5.90
2018-03-16T18:53:06.226Z,5.97
2018-03-16T18:55:32.414Z,6.27
2018-03-16T18:57:58.618Z,7.00
2018-03-16T19:00:25.509Z,7.23
2018-03-16T19:02:51.694Z,7.53
2018-03-16T19:05:18.570Z,6.70
2018-03-16T19:07:44.783Z,7.60
2018-03-16T19:10:10.913Z,6.50
2018-03-16T19:12:37.038Z,9.80
2018-03-16T19:15:03.301Z,8.37
2018-03-16T19:17:29.485Z,10.33
2018-03-16T19:19:56.329Z,11.10
2018-03-16T19:22:23.214Z,11.53
2018-03-16T19:24:49.373Z,10.10
2018-03-16T19:27:15.534Z,12.00
2018-03-16T19:29:41.637Z,12.30
2018-03-16T19:32:08.538Z,9.30
2018-03-16T19:34:34.673Z,8.10
2018-03-16T19:37:01.344Z,6.07
2018-03-16T19:39:28.201Z,4.90
2018-03-16T19:41:55.063Z,4.30
2018-03-16T19:44:21.231Z,3.43
2018-03-16T19:46:47.375Z,3.60
2018-03-16T19:49:14.293Z,3.70
2018-03-16T19:51:40.417Z,3.70
2018-03-16T19:54:06.653Z,3.03
2018-03-16T19:56:32.840Z,2.80
2018-03-16T19:58:59.044Z,2.70
2018-03-16T20:01:26.009Z,2.90
2018-03-16T20:03:52.163Z,2.77
2018-03-16T20:06:18.356Z,3.53
2018-03-16T20:08:44.510Z,3.17
2018-03-16T20:11:10.707Z,2.80
2018-03-16T20:13:37.614Z,3.40
2018-03-16T20:16:03.793Z,3.20
2018-03-16T20:18:30.259Z,4.00
2018-03-16T20:20:56.413Z,3.30
2018-03-16T20:23:23.349Z,2.90
2018-03-16T20:25:49.712Z,3.43
2018-03-16T20:28:15.913Z,2.80
2018-03-16T20:30:42.076Z,3.00
2018-03-16T20:33:08.321Z,3.37
2018-03-16T20:35:34.492Z,3.30
2018-03-16T20:38:00.680Z,3.40
2018-03-16T20:40:26.821Z,2.77
2018-03-16T20:42:52.983Z,3.03
2018-03-16T20:45:19.135Z,3.27
2018-03-16T20:47:45.345Z,2.77
2018-03-16T20:50:12.273Z,3.03
2018-03-16T20:52:38.422Z,2.70
2018-03-16T20:55:05.984Z,2.73
2018-03-16T20:57:32.898Z,2.93
2018-03-16T20:59:59.068Z,2.90
2018-03-16T21:02:25.265Z,3.17
2018-03-16T21:04:51.370Z,3.90
2018-03-16T21:07:17.523Z,3.90
2018-03-16T21:09:43.701Z,3.90
2018-03-16T21:12:09.850Z,3.57
2018-03-16T21:14:36.016Z,3.70
2018-03-16T21:17:02.889Z,3.97
2018-03-16T21:19:29.021Z,3.93
2018-03-16T21:21:55.173Z,4.20
2018-03-16T21:24:21.322Z,4.60
2018-03-16T21:26:48.206Z,5.10
2018-03-16T21:29:14.328Z,5.53
2018-03-16T21:31:40.519Z,5.90
2018-03-16T21:34:06.697Z,5.67
2018-03-16T21:36:32.918Z,5.53
2018-03-16T21:38:59.104Z,6.40
2018-03-16T21:41:25.997Z,8.10
2018-03-16T21:43:52.150Z,7.33
2018-03-16T21:46:18.266Z,7.97
2018-03-16T21:48:44.427Z,8.23
2018-03-16T21:51:10.636Z,7.70
2018-03-16T21:53:37.587Z,9.13
2018-03-16T21:56:04.529Z,9.97
2018-03-16T21:58:30.742Z,9.60
2018-03-16T22:00:56.896Z,10.10
2018-03-16T22:03:23.728Z,9.77
2018-03-16T22:05:50.614Z,10.37
2018-03-16T22:08:16.825Z,10.03
2018-03-16T22:10:43.710Z,9.53
2018-03-16T22:13:09.911Z,10.50
2018-03-16T22:15:36.013Z,11.23
2018-03-16T22:18:02.175Z,10.80
2018-03-16T22:20:28.329Z,10.67
2018-03-16T22:22:54.461Z,11.37
2018-03-16T22:25:20.609Z,11.23
2018-03-16T22:27:46.740Z,10.97
2018-03-16T22:30:13.965Z,13.00
2018-03-16T22:32:40.173Z,11.73
2018-03-16T22:35:09.813Z,12.40
2018-03-16T22:37:36.057Z,12.17
2018-03-16T22:40:02.271Z,11.80
2018-03-16T22:42:28.419Z,12.97
2018-03-16T22:44:54.620Z,13.23
2018-03-16T22:47:20.794Z,13.50
2018-03-16T22:49:46.945Z,12.63
2018-03-16T22:52:13.164Z,14.43
2018-03-16T22:54:39.340Z,13.93
2018-03-16T22:57:06.281Z,14.27
2018-03-16T22:59:32.464Z,15.00
2018-03-16T23:01:58.637Z,14.90
2018-03-16T23:04:24.790Z,15.90
2018-03-16T23:06:51.736Z,15.87
2018-03-16T23:09:18.669Z,16.97
2018-03-16T23:11:46.138Z,17.60
2018-03-16T23:14:13.072Z,18.50
2018-03-16T23:16:39.984Z,18.10
2018-03-16T23:19:06.201Z,19.00
2018-03-16T23:21:32.319Z,18.20
2018-03-16T23:23:58.537Z,18.70
2018-03-16T23:26:24.674Z,19.93
2018-03-16T23:28:50.907Z,17.70
2018-03-16T23:31:17.043Z,18.90
2018-03-16T23:33:43.145Z,19.00
2018-03-16T23:36:09.301Z,17.70
2018-03-16T23:38:35.469Z,19.37
2018-03-16T23:41:02.437Z,18.67
2018-03-16T23:43:28.603Z,20.17
2018-03-16T23:45:54.777Z,18.00
2018-03-16T23:48:21.653Z,18.33
2018-03-16T23:50:47.793Z,19.30
2018-03-16T23:53:13.926Z,18.83
2018-03-16T23:55:40.164Z,20.37
2018-03-16T23:58:06.317Z,19.23
